Time;durP1;ratioP1;P1;durP2;ratioP2;P2;SDS_P1;SDS_P2;PMS_P1;PMS_P2;Temp;Humidity;BMP_temperature;BMP_pressure;BME280_temperature;BME280_humidity;BME280_pressure;Samples;Min_cycle;Max_cycle;Signal;HPM_P1;HPM_P2
2022/11/15 00:00:55;;;;;;;203.73;97.55;;;;;;;5.29;72.84;95843.44;5045548;28;20055;-78
2022/11/15 00:03:23;;;;;;;197.10;95.45;;;;;;;5.30;72.18;95848.47;5072804;28;20044;-78
2022/11/15 00:05:50;;;;;;;210.43;97.60;;;;;;;4.97;72.35;95800.78;5067853;28;20043;-78
2022/11/15 00:08:16;;;;;;;198.40;96.78;;;;;;;5.29;72.48;95849.50;5060174;28;20055;-78
2022/11/15 00:10:42;;;;;;;212.30;102.50;;;;;;;5.15;72.00;95829.69;5078109;28;20197;-78
2022/11/15 00:13:12;;;;;;;202.30;96.50;;;;;;;5.01;72.61;95802.78;5078353;28;20049;-77
2022/11/15 00:15:41;;;;;;;204.02;98.82;;;;;;;5.26;72.01;95849.97;5060212;28;20047;-78
2022/11/15 00:18:13;;;;;;;197.07;97.05;;;;;;;5.26;72.16;95843.91;5063585;28;20473;-78
2022/11/15 00:20:38;;;;;;;207.77;96.15;;;;;;;4.92;72.16;95787.53;5056654;28;20056;-78
2022/11/15 00:23:04;;;;;;;192.23;93.10;;;;;;;5.23;72.91;95841.72;5059733;28;20048;-78
2022/11/15 00:25:33;;;;;;;189.85;94.03;;;;;;;5.25;72.17;95840.47;5078068;28;20139;-75
2022/11/15 00:27:59;;;;;;;200.35;97.25;;;;;;;5.20;71.99;95839.50;5078202;28;20147;-77
2022/11/15 00:30:26;;;;;;;196.63;95.35;;;;;;;5.20;71.97;95835.06;5077381;28;20554;-76
2022/11/15 00:32:52;;;;;;;187.13;92.43;;;;;;;5.22;71.58;95827.75;5059578;28;20805;-77
2022/11/15 00:35:17;;;;;;;199.02;97.03;;;;;;;5.10;71.74;95811.16;5059760;28;20104;-77
2022/11/15 00:37:43;;;;;;;201.38;95.28;;;;;;;5.15;71.92;95824.41;5077343;28;20047;-77
2022/11/15 00:40:09;;;;;;;185.25;90.72;;;;;;;4.62;72.44;95741.03;5059040;28;20055;-77
2022/11/15 00:42:35;;;;;;;202.10;91.10;;;;;;;4.91;72.48;95788.56;5058415;28;20079;-77
2022/11/15 00:45:00;;;;;;;188.65;89.30;;;;;;;4.63;71.95;95741.84;5065730;28;20107;-77
2022/11/15 00:47:26;;;;;;;188.40;87.80;;;;;;;4.25;71.93;95682.53;5057530;28;20048;-77
2022/11/15 00:49:51;;;;;;;179.13;85.85;;;;;;;5.14;71.86;95824.63;5036307;28;20536;-77
2022/11/15 00:52:17;;;;;;;188.90;87.70;;;;;;;4.73;72.83;95757.84;5058839;28;20054;-77
2022/11/15 00:54:42;;;;;;;178.98;85.65;;;;;;;4.56;72.53;95733.25;5059648;28;20044;-77
2022/11/15 00:57:09;;;;;;;187.48;81.78;;;;;;;4.88;73.09;95796.91;5059883;28;20067;-77
2022/11/15 00:59:36;;;;;;;182.55;84.90;;;;;;;5.11;72.24;95818.00;5076117;28;20117;-78
2022/11/15 01:02:01;;;;;;;189.77;85.07;;;;;;;4.70;72.63;95741.75;5059171;28;20048;-77
2022/11/15 01:04:27;;;;;;;176.38;83.43;;;;;;;4.37;72.08;95685.19;5059379;28;20040;-77
2022/11/15 01:06:54;;;;;;;174.82;83.05;;;;;;;5.14;72.04;95814.94;5059162;28;20518;-78
2022/11/15 01:09:19;;;;;;;168.90;78.75;;;;;;;4.94;71.97;95796.00;5043557;28;20059;-77
2022/11/15 01:11:45;;;;;;;170.63;78.85;;;;;;;4.36;71.86;95699.34;5077269;28;20039;-77
2022/11/15 01:14:10;;;;;;;162.48;81.00;;;;;;;5.03;72.10;95813.06;5059191;28;20642;-77
2022/11/15 01:16:36;;;;;;;163.75;77.20;;;;;;;5.04;71.70;95812.81;5076940;28;20086;-77
2022/11/15 01:19:02;;;;;;;167.05;77.53;;;;;;;4.16;71.90;95675.16;5077603;28;20048;-77
2022/11/15 01:21:29;;;;;;;163.82;76.55;;;;;;;4.61;71.80;95754.38;5077057;28;20438;-77
2022/11/15 01:23:57;;;;;;;158.77;74.05;;;;;;;5.00;72.13;95810.88;5058657;28;20048;-77
2022/11/15 01:26:24;;;;;;;173.38;79.70;;;;;;;4.97;71.85;95806.84;5059956;28;20044;-77
2022/11/15 01:28:50;;;;;;;163.25;76.03;;;;;;;4.55;71.77;95758.72;5061156;28;20055;-77
2022/11/15 01:31:19;;;;;;;157.77;76.45;;;;;;;4.92;72.48;95805.94;5057580;28;20052;-77
2022/11/15 01:33:45;;;;;;;143.65;67.75;;;;;;;4.51;72.20;95749.66;5078346;28;20044;-78
2022/11/15 01:36:16;;;;;;;157.57;74.15;;;;;;;4.84;72.54;95800.97;5059617;28;20047;-77
2022/11/15 01:38:42;;;;;;;165.45;73.43;;;;;;;4.75;72.35;95789.16;5077361;28;20633;-77
2022/11/15 01:41:16;;;;;;;153.65;70.78;;;;;;;4.94;72.56;95809.16;5074523;28;20052;-77
2022/11/15 01:43:41;;;;;;;151.65;68.38;;;;;;;4.50;72.32;95745.41;5069109;28;20044;-77
2022/11/15 01:46:22;;;;;;;147.15;68.05;;;;;;;4.95;72.02;95803.66;5062864;28;20112;-77
2022/11/15 01:48:51;;;;;;;154.25;72.32;;;;;;;4.92;71.74;95808.56;5062673;28;20080;-77
2022/11/15 01:51:21;;;;;;;150.32;69.70;;;;;;;4.82;72.03;95792.50;5067236;28;20048;-77
2022/11/15 01:53:50;;;;;;;161.95;71.63;;;;;;;4.88;72.24;95802.94;5076675;28;20044;-77
2022/11/15 01:56:21;;;;;;;152.48;69.82;;;;;;;4.43;71.66;95757.81;5081126;28;20097;-77
2022/11/15 01:58:47;;;;;;;154.95;70.32;;;;;;;4.09;71.80;95704.13;5080200;28;20048;-77
2022/11/15 02:01:14;;;;;;;150.35;67.45;;;;;;;4.76;72.21;95796.81;5062437;28;20083;-78
2022/11/15 02:04:13;;;;;;;143.18;65.45;;;;;;;4.75;71.95;95802.31;5080261;28;20039;-78
2022/11/15 02:06:42;;;;;;;142.43;64.78;;;;;;;3.90;71.87;95705.13;5059577;28;20044;-78
2022/11/15 02:09:08;;;;;;;143.20;62.10;;;;;;;4.60;72.02;95797.44;5061903;28;20725;-77
2022/11/15 02:11:33;;;;;;;140.98;62.88;;;;;;;4.40;72.18;95784.56;5081646;28;20054;-76
2022/11/15 02:14:01;;;;;;;135.45;64.47;;;;;;;4.60;72.23;95800.88;5067915;28;20033;-76
2022/11/15 02:16:42;;;;;;;141.35;63.47;;;;;;;4.60;72.38;95803.50;5075655;28;20090;-77
2022/11/15 02:19:29;;;;;;;137.85;63.28;;;;;;;4.64;71.85;95798.63;5062741;28;20050;-76
2022/11/15 02:22:21;;;;;;;131.45;63.10;;;;;;;4.64;72.59;95802.03;5077744;28;20154;-76
2022/11/15 02:25:08;;;;;;;133.90;60.85;;;;;;;4.55;72.53;95794.69;5051064;28;20649;-76
2022/11/15 02:27:52;;;;;;;135.15;59.95;;;;;;;4.57;72.33;95811.03;5067744;28;20077;-75
2022/11/15 02:30:28;;;;;;;127.90;59.47;;;;;;;4.56;72.02;95798.91;5077982;28;20047;-76
2022/11/15 02:33:04;;;;;;;141.23;62.00;;;;;;;4.36;72.16;95766.81;5062030;28;20162;-76
2022/11/15 02:35:39;;;;;;;135.82;60.35;;;;;;;4.10;72.35;95723.31;5061741;28;20047;-76
2022/11/15 02:38:08;;;;;;;131.93;61.05;;;;;;;4.58;72.55;95796.84;5080447;28;20120;-76
2022/11/15 02:40:49;;;;;;;126.07;59.40;;;;;;;4.61;72.26;95789.34;5080416;28;20058;-76
2022/11/15 02:46:18;;;;;;;142.20;57.45;;;;;;;3.85;71.86;95673.50;5075053;28;20101;-77
2022/11/15 02:48:45;;;;;;;134.18;60.20;;;;;;;4.17;71.81;95730.06;5061760;28;20063;-77
2022/11/15 02:51:12;;;;;;;129.60;60.38;;;;;;;4.16;71.90;95732.91;5079298;28;20036;-76
2022/11/15 02:53:37;;;;;;;131.82;60.72;;;;;;;4.40;72.13;95770.63;5079970;28;20044;-77
2022/11/15 02:56:03;;;;;;;140.68;59.83;;;;;;;3.88;71.78;95694.06;5061461;28;20149;-77
2022/11/15 02:58:44;;;;;;;137.25;57.95;;;;;;;4.57;72.00;95801.31;5080350;28;20086;-77
2022/11/15 03:01:18;;;;;;;141.18;60.58;;;;;;;4.61;72.78;95801.66;5062107;28;20844;-77
2022/11/15 03:03:59;;;;;;;140.77;58.70;;;;;;;4.61;72.97;95801.66;5061923;28;20814;-77
2022/11/15 03:06:33;;;;;;;139.27;58.63;;;;;;;4.63;72.50;95797.00;5079493;28;20418;-77
2022/11/15 03:09:13;;;;;;;130.45;57.63;;;;;;;4.25;72.97;95747.34;5079968;28;20040;-77
2022/11/15 03:11:48;;;;;;;152.48;59.67;;;;;;;4.21;73.23;95752.22;5078556;28;20075;-77
2022/11/15 03:14:33;;;;;;;146.25;58.90;;;;;;;4.63;72.92;95797.81;5063080;28;20044;-76
2022/11/15 03:17:02;;;;;;;130.68;57.03;;;;;;;4.65;73.27;95798.38;5061478;28;20059;-77
2022/11/15 03:19:38;;;;;;;145.18;57.80;;;;;;;4.62;73.22;95790.94;5052987;28;20048;-77
2022/11/15 03:22:07;;;;;;;144.63;57.63;;;;;;;4.28;73.10;95721.44;5052985;28;20102;-77
2022/11/15 03:24:37;;;;;;;143.07;58.33;;;;;;;4.46;73.46;95753.97;5080111;28;20051;-77
2022/11/15 03:27:06;;;;;;;138.70;58.53;;;;;;;4.35;73.32;95734.50;5079519;28;20127;-77
2022/11/15 03:29:38;;;;;;;150.57;60.70;;;;;;;4.73;73.57;95789.38;5079692;28;20044;-77
2022/11/15 03:32:11;;;;;;;142.55;59.03;;;;;;;4.62;73.65;95771.75;5061127;28;20048;-77
2022/11/15 03:34:49;;;;;;;156.63;60.88;;;;;;;4.79;73.45;95787.72;5075964;28;20189;-77
2022/11/15 03:37:17;;;;;;;142.38;60.08;;;;;;;4.09;73.30;95670.00;5047635;28;20142;-77
2022/11/15 03:39:43;;;;;;;143.13;58.38;;;;;;;4.45;73.06;95710.34;5079836;28;20036;-76
2022/11/15 03:42:32;;;;;;;134.75;55.10;;;;;;;4.15;73.15;95669.09;5060704;28;20044;-77
2022/11/15 03:45:15;;;;;;;137.68;56.15;;;;;;;4.81;73.64;95767.25;5065396;28;20048;-77
2022/11/15 03:47:51;;;;;;;135.93;53.63;;;;;;;4.43;73.79;95715.00;5075958;28;20525;-77
2022/11/15 03:50:22;;;;;;;132.43;53.25;;;;;;;4.92;73.04;95763.88;5078579;28;20794;-77
2022/11/15 03:52:49;;;;;;;138.70;55.80;;;;;;;4.93;73.35;95760.22;5061313;28;20147;-77
2022/11/15 03:55:17;;;;;;;137.85;55.45;;;;;;;4.94;73.68;95762.63;5079362;28;20040;-76
2022/11/15 03:57:43;;;;;;;140.10;60.65;;;;;;;4.82;73.77;95748.63;5060360;28;20464;-77
2022/11/15 04:00:09;;;;;;;154.10;65.47;;;;;;;4.83;73.41;95737.09;5060644;28;20044;-77
2022/11/15 04:02:35;;;;;;;161.52;69.95;;;;;;;4.88;72.99;95753.00;5060635;28;20044;-77
2022/11/15 04:05:00;;;;;;;159.82;70.13;;;;;;;4.89;72.75;95764.31;5070287;28;20052;-77
2022/11/15 04:07:26;;;;;;;166.77;67.93;;;;;;;4.60;72.58;95703.66;5067958;28;20060;-77
2022/11/15 04:10:03;;;;;;;164.07;68.40;;;;;;;4.69;73.03;95706.78;5068402;28;20126;-77
2022/11/15 04:12:34;;;;;;;166.40;68.75;;;;;;;4.62;72.66;95700.81;5053377;28;20510;-77
2022/11/15 04:15:08;;;;;;;143.15;63.97;;;;;;;4.93;72.53;95753.13;5059967;28;20063;-78
2022/11/15 04:17:42;;;;;;;149.45;66.55;;;;;;;4.97;72.78;95759.53;5078609;28;20074;-77
2022/11/15 04:26:14;;;;;;;146.82;66.15;;;;;;;4.70;72.21;95715.47;5078614;28;20129;-77
2022/11/15 04:29:33;;;;;;;149.80;66.78;;;;;;;4.44;72.81;95672.75;5059530;28;20063;-78
2022/11/15 04:31:25;;;;;;;136.75;63.05;;;;;;;4.93;72.80;95749.72;5041648;28;20118;-77
2022/11/15 04:33:50;;;;;;;131.75;61.50;;;;;;;4.98;72.28;95744.56;5074643;28;20435;-77
2022/11/15 04:38:59;;;;;;;131.40;62.90;;;;;;;4.54;72.34;95694.06;5078212;28;20047;-77
2022/11/15 04:41:25;;;;;;;139.18;63.03;;;;;;;4.84;72.29;95738.72;5069564;28;20044;-77
2022/11/15 04:43:50;;;;;;;148.20;62.55;;;;;;;4.75;72.05;95711.13;5050189;28;20768;-77
2022/11/15 04:46:16;;;;;;;136.65;60.92;;;;;;;4.96;72.07;95744.00;5078101;28;20054;-77
2022/11/15 04:48:41;;;;;;;123.75;61.30;;;;;;;4.63;71.60;95697.97;5077812;28;20051;-77
2022/11/15 04:51:06;;;;;;;118.10;58.05;;;;;;;4.80;71.88;95710.50;5060110;28;20522;-77
2022/11/15 04:53:32;;;;;;;123.40;55.92;;;;;;;5.00;71.39;95753.03;5078553;28;20151;-78
2022/11/15 04:55:57;;;;;;;110.45;54.85;;;;;;;4.98;71.54;95755.88;5059573;28;20040;-77
2022/11/15 04:58:23;;;;;;;110.22;53.17;;;;;;;4.42;71.51;95658.28;5045921;28;20072;-77
2022/11/15 05:00:48;;;;;;;95.30;47.20;;;;;;;5.03;71.67;95757.88;5040311;28;20137;-78
2022/11/15 05:05:58;;;;;;;94.25;46.00;;;;;;;4.95;71.62;95760.81;5059809;28;20051;-77
2022/11/15 05:08:25;;;;;;;86.25;43.53;;;;;;;4.25;71.47;95630.00;5077102;28;20071;-77
2022/11/15 05:10:50;;;;;;;86.15;44.72;;;;;;;4.61;71.21;95686.88;5076359;28;20044;-77
2022/11/15 05:13:16;;;;;;;80.38;41.95;;;;;;;4.86;71.49;95734.03;5070562;28;20071;-77
2022/11/15 05:15:42;;;;;;;83.25;41.58;;;;;;;5.01;72.09;95759.91;5053576;28;20048;-77
2022/11/15 05:18:07;;;;;;;84.68;41.55;;;;;;;4.93;72.63;95736.56;5058085;28;20079;-77
2022/11/15 05:20:34;;;;;;;91.55;43.13;;;;;;;5.09;72.79;95759.59;5073863;28;20051;-77
2022/11/15 05:22:59;;;;;;;92.47;42.40;;;;;;;4.79;72.67;95711.50;5062302;28;20044;-77
2022/11/15 05:25:25;;;;;;;92.38;42.42;;;;;;;4.57;72.81;95661.28;5046401;28;20041;-78
2022/11/15 05:27:50;;;;;;;89.03;41.55;;;;;;;4.88;73.34;95721.44;5043435;28;20055;-77
2022/11/15 05:30:16;;;;;;;92.07;40.60;;;;;;;5.11;73.84;95741.75;5038153;28;20534;-77
2022/11/15 05:32:42;;;;;;;94.82;41.70;;;;;;;4.54;73.46;95659.91;5046896;28;20041;-77
2022/11/15 05:35:15;;;;;;;83.90;38.97;;;;;;;4.26;73.94;95596.69;5039307;28;20048;-78
2022/11/15 05:37:40;;;;;;;69.93;31.67;;;;;;;5.22;74.23;95738.34;5047764;28;20056;-78
2022/11/15 05:40:06;;;;;;;71.57;30.83;;;;;;;5.00;75.34;95730.19;5037914;28;20438;-78
2022/11/15 05:42:32;;;;;;;74.80;30.95;;;;;;;4.92;74.93;95701.59;5034519;28;20080;-78
2022/11/15 05:44:59;;;;;;;67.95;29.10;;;;;;;4.65;75.08;95656.50;5059695;28;20045;-78
2022/11/15 05:47:29;;;;;;;74.60;31.40;;;;;;;5.15;75.15;95747.38;5027867;28;20742;-78
2022/11/15 05:49:55;;;;;;;71.63;29.45;;;;;;;4.98;76.12;95716.47;5035776;28;20040;-78
2022/11/15 05:52:28;;;;;;;86.85;30.40;;;;;;;4.88;75.74;95689.16;5022971;28;20068;-78
2022/11/15 05:54:56;;;;;;;72.25;29.65;;;;;;;4.82;75.78;95676.88;5050782;28;20040;-78
2022/11/15 05:57:22;;;;;;;85.72;30.73;;;;;;;4.61;75.47;95652.72;5029401;28;20863;-78
2022/11/15 05:59:47;;;;;;;99.85;31.08;;;;;;;5.32;76.06;95754.38;5047098;28;20062;-78
2022/11/15 06:02:13;;;;;;;79.70;30.17;;;;;;;4.78;76.16;95673.13;5033701;28;20055;-79
2022/11/15 06:04:38;;;;;;;73.85;29.30;;;;;;;4.97;76.10;95700.91;5029367;28;20036;-81
2022/11/15 06:07:03;;;;;;;66.15;27.92;;;;;;;4.96;76.28;95694.03;5054367;28;20167;-78
2022/11/15 06:09:29;;;;;;;62.72;26.15;;;;;;;4.74;76.04;95669.31;5050957;28;20037;-76
2022/11/15 06:11:54;;;;;;;67.53;28.20;;;;;;;4.37;76.38;95622.16;5041198;28;20075;-80
2022/11/15 06:14:20;;;;;;;71.82;27.38;;;;;;;5.40;75.62;95769.03;5033426;28;20494;-78
2022/11/15 06:16:45;;;;;;;62.60;27.92;;;;;;;4.56;76.13;95636.84;5034782;28;20085;-78
2022/11/15 06:19:11;;;;;;;68.07;27.40;;;;;;;4.50;76.41;95653.47;5043147;28;20135;-79
2022/11/15 06:21:36;;;;;;;75.05;31.13;;;;;;;4.91;76.40;95694.72;5014826;28;20036;-77
2022/11/15 06:24:02;;;;;;;76.53;30.33;;;;;;;4.84;76.15;95686.16;5049440;28;20122;-77
2022/11/15 06:26:28;;;;;;;78.10;30.70;;;;;;;4.66;76.22;95650.22;5052249;28;20124;-77
2022/11/15 06:28:54;;;;;;;71.70;30.08;;;;;;;5.33;76.66;95752.56;5034916;28;20047;-80
2022/11/15 06:31:19;;;;;;;74.50;30.58;;;;;;;4.90;76.35;95684.44;5031978;28;20493;-78
2022/11/15 06:33:46;;;;;;;79.15;32.53;;;;;;;5.52;76.39;95767.22;5018481;28;20201;-78
2022/11/15 06:36:19;;;;;;;64.05;28.55;;;;;;;5.57;76.60;95756.03;5030482;28;20605;-78
2022/11/15 06:38:44;;;;;;;80.38;33.70;;;;;;;5.25;76.31;95708.97;5023066;28;20067;-78
2022/11/15 06:41:11;;;;;;;74.03;33.10;;;;;;;5.46;75.81;95738.38;5037106;28;20052;-78
2022/11/15 06:43:37;;;;;;;72.35;30.52;;;;;;;5.27;76.30;95714.78;5046747;28;20519;-80
2022/11/15 06:46:04;;;;;;;80.50;31.60;;;;;;;5.55;76.45;95750.19;5031905;28;20859;-79
2022/11/15 06:48:30;;;;;;;88.00;34.42;;;;;;;4.91;75.99;95654.50;5044419;28;20049;-78
2022/11/15 06:50:58;;;;;;;81.38;33.08;;;;;;;5.35;75.86;95708.41;5028164;28;20044;-76
2022/11/15 06:53:24;;;;;;;93.75;36.67;;;;;;;5.71;75.85;95760.03;5063077;28;20839;-80
2022/11/15 06:55:50;;;;;;;95.32;36.15;;;;;;;4.99;75.83;95649.72;5059877;28;20131;-79
2022/11/15 06:58:16;;;;;;;89.38;36.45;;;;;;;5.40;75.98;95709.34;5056808;28;20032;-79
2022/11/15 07:00:42;;;;;;;84.40;34.58;;;;;;;5.62;75.67;95735.88;5025795;28;20044;-80
2022/11/15 07:03:09;;;;;;;84.75;34.70;;;;;;;5.77;75.33;95759.91;5020858;28;20418;-77
2022/11/15 07:05:35;;;;;;;76.45;31.17;;;;;;;5.13;75.66;95650.31;5028075;28;20043;-79
2022/11/15 07:08:00;;;;;;;79.70;33.33;;;;;;;5.79;76.08;95749.16;5050450;28;20049;-79
2022/11/15 07:10:27;;;;;;;70.35;30.10;;;;;;;5.45;75.38;95703.38;5034693;28;20051;-79
2022/11/15 07:12:53;;;;;;;59.72;28.17;;;;;;;5.57;75.82;95713.94;5039584;28;20654;-78
2022/11/15 07:15:25;;;;;;;57.80;26.92;;;;;;;5.79;75.49;95742.06;5052421;28;20513;-78
2022/11/15 07:17:51;;;;;;;61.85;28.00;;;;;;;5.93;75.51;95747.94;5053145;28;20833;-79
2022/11/15 07:20:17;;;;;;;74.95;29.45;;;;;;;5.94;75.11;95741.63;5054414;28;20059;-79
2022/11/15 07:22:45;;;;;;;64.20;29.25;;;;;;;5.27;74.73;95654.31;5042684;28;20045;-75
2022/11/15 07:25:12;;;;;;;74.75;32.90;;;;;;;5.58;75.13;95674.22;5037059;28;20082;-78
2022/11/15 07:27:38;;;;;;;81.38;33.58;;;;;;;5.79;75.46;95747.34;5036712;28;20153;-76
2022/11/15 07:30:04;;;;;;;80.70;31.90;;;;;;;5.92;75.53;95746.31;5026680;28;20048;-77
2022/11/15 07:32:29;;;;;;;76.55;31.42;;;;;;;5.90;75.30;95750.19;5038204;28;20043;-76
2022/11/15 07:34:55;;;;;;;80.18;33.67;;;;;;;5.44;75.64;95673.66;5055423;28;20109;-78
2022/11/15 07:37:20;;;;;;;88.68;34.03;;;;;;;5.64;75.69;95697.00;5035051;28;20044;-79
2022/11/15 07:39:45;;;;;;;77.00;31.42;;;;;;;6.00;75.69;95755.69;5055066;28;20060;-78
2022/11/15 07:44:55;;;;;;;89.78;35.63;;;;;;;6.02;75.20;95746.56;5050103;28;20817;-77
2022/11/15 07:47:20;;;;;;;87.18;35.67;;;;;;;6.02;75.07;95748.38;5056099;28;20044;-77
2022/11/15 07:49:46;;;;;;;93.13;36.60;;;;;;;6.01;75.33;95746.78;5051344;28;20121;-79
2022/11/15 07:52:12;;;;;;;89.90;36.58;;;;;;;6.09;75.27;95749.06;5030348;28;20036;-81
2022/11/15 07:54:38;;;;;;;124.60;43.30;;;;;;;6.09;74.65;95741.16;4989273;28;20044;-78
2022/11/15 07:57:04;;;;;;;112.43;41.08;;;;;;;6.08;74.57;95748.25;5028712;28;20049;-79
2022/11/15 07:59:30;;;;;;;109.45;42.35;;;;;;;5.28;76.58;95663.00;5031795;28;20108;-81
2022/11/15 08:01:55;;;;;;;103.25;41.28;;;;;;;4.94;76.18;95599.69;5023678;28;20048;-81
2022/11/15 08:04:21;;;;;;;96.57;42.20;;;;;;;5.28;76.21;95647.22;5049080;28;20480;-81
2022/11/15 08:06:46;;;;;;;103.68;42.85;;;;;;;5.80;76.18;95719.16;5041860;28;20193;-80
2022/11/15 08:09:12;;;;;;;103.95;43.03;;;;;;;5.38;75.45;95648.25;5039798;28;20046;-78
2022/11/15 08:11:37;;;;;;;110.53;42.20;;;;;;;5.48;75.62;95658.22;5040038;28;20056;-78
2022/11/15 08:14:03;;;;;;;125.68;48.47;;;;;;;5.64;75.72;95696.19;5037182;28;20048;-78
2022/11/15 08:16:28;;;;;;;123.43;47.80;;;;;;;5.07;76.53;95616.25;5047665;28;20510;-79
2022/11/15 08:18:53;;;;;;;138.15;52.13;;;;;;;5.60;76.89;95727.41;5056527;28;20515;-77
2022/11/15 08:21:20;;;;;;;125.25;52.20;;;;;;;5.79;75.90;95736.00;5050210;28;20085;-77
2022/11/15 08:23:46;;;;;;;122.30;49.08;;;;;;;5.63;76.07;95695.38;5042060;28;20102;-77
2022/11/15 08:26:11;;;;;;;126.53;48.85;;;;;;;5.41;76.14;95679.38;5038414;28;20051;-76
2022/11/15 08:28:37;;;;;;;116.38;47.90;;;;;;;5.60;75.90;95689.78;5028779;28;20638;-76
2022/11/15 08:31:03;;;;;;;117.70;49.58;;;;;;;5.42;76.30;95659.13;5025224;28;20052;-77
2022/11/15 08:33:30;;;;;;;126.85;50.45;;;;;;;5.75;76.17;95737.47;5045660;28;21042;-77
2022/11/15 08:35:57;;;;;;;124.80;49.65;;;;;;;5.38;76.43;95674.56;5038239;28;20044;-77
2022/11/15 08:38:23;;;;;;;121.15;50.17;;;;;;;5.85;75.99;95715.84;5045096;28;20072;-77
2022/11/15 08:40:50;;;;;;;120.32;49.13;;;;;;;5.32;76.33;95637.88;5042452;28;20443;-78
2022/11/15 08:43:15;;;;;;;122.25;51.00;;;;;;;5.99;75.87;95730.41;5043873;28;20040;-78
2022/11/15 08:45:40;;;;;;;118.22;48.15;;;;;;;6.13;75.98;95724.66;5024777;28;20051;-78
2022/11/15 08:48:06;;;;;;;123.75;50.72;;;;;;;6.05;75.49;95721.56;5023129;28;20169;-78
2022/11/15 08:50:31;;;;;;;119.72;50.63;;;;;;;5.92;76.08;95696.31;5040424;28;20047;-78
2022/11/15 08:52:57;;;;;;;124.07;50.92;;;;;;;5.68;75.49;95637.59;5039975;28;20063;-80
2022/11/15 08:55:22;;;;;;;123.78;50.92;;;;;;;5.58;75.25;95597.91;5045208;28;20618;-77
2022/11/15 08:57:48;;;;;;;119.15;51.13;;;;;;;5.98;75.19;95652.44;5046436;28;20596;-80
2022/11/15 09:00:13;;;;;;;118.97;50.03;;;;;;;5.89;75.08;95628.31;5041172;28;20044;-77
2022/11/15 09:02:40;;;;;;;132.85;54.47;;;;;;;6.50;74.95;95700.59;5035802;28;20062;-79
2022/11/15 09:05:06;;;;;;;110.32;49.33;;;;;;;5.94;74.72;95625.78;5024783;28;20059;-77
2022/11/15 09:07:31;;;;;;;118.20;51.50;;;;;;;5.32;74.73;95536.09;5052513;28;20052;-77
2022/11/15 09:09:57;;;;;;;127.75;54.80;;;;;;;5.72;75.23;95636.09;5027787;28;20045;-79
2022/11/15 09:12:23;;;;;;;129.10;54.58;;;;;;;6.30;75.09;95694.94;5047466;28;20079;-77
2022/11/15 09:14:48;;;;;;;127.00;54.85;;;;;;;6.37;75.16;95683.25;5028465;28;20086;-78
2022/11/15 09:17:15;;;;;;;126.50;54.60;;;;;;;6.01;75.71;95670.41;5043058;28;20037;-78
2022/11/15 09:19:41;;;;;;;139.70;55.95;;;;;;;6.29;75.71;95683.63;5049086;28;20561;-78
2022/11/15 09:22:08;;;;;;;134.80;54.60;;;;;;;5.80;75.02;95622.56;5050705;28;20051;-78
2022/11/15 09:24:34;;;;;;;129.40;56.17;;;;;;;6.03;75.47;95636.72;5017104;28;21865;-78
2022/11/15 09:26:59;;;;;;;131.55;52.92;;;;;;;5.90;74.89;95589.63;5025461;28;20113;-78
2022/11/15 09:29:25;;;;;;;133.32;55.08;;;;;;;6.35;75.17;95653.69;5034269;28;20581;-78
2022/11/15 09:31:54;;;;;;;131.98;56.28;;;;;;;6.47;75.03;95648.41;5041569;28;20054;-81
2022/11/15 09:34:20;;;;;;;137.27;59.13;;;;;;;6.66;74.40;95660.31;5045127;28;20033;-78
2022/11/15 09:36:46;;;;;;;144.18;61.50;;;;;;;6.10;74.21;95566.34;5050642;28;20793;-76
2022/11/15 09:39:13;;;;;;;151.02;60.42;;;;;;;6.47;74.19;95611.50;5050572;28;20067;-82
2022/11/15 09:41:54;;;;;;;147.27;60.92;;;;;;;6.34;73.79;95586.25;5025695;28;20051;-78
2022/11/15 09:44:32;;;;;;;143.43;63.13;;;;;;;5.85;73.52;95484.22;5042202;28;20102;-78
2022/11/15 09:47:23;;;;;;;139.15;58.53;;;;;;;6.90;74.03;95645.97;5045322;28;20044;-80
2022/11/15 09:49:56;;;;;;;151.68;60.95;;;;;;;5.72;74.01;95472.16;5039672;28;20048;-81
2022/11/15 09:52:22;;;;;;;149.48;61.85;;;;;;;6.63;73.47;95625.75;5040286;28;20047;-78
2022/11/15 09:54:50;;;;;;;152.75;65.80;;;;;;;6.23;73.32;95557.34;5040986;28;20045;-80
2022/11/15 09:57:20;;;;;;;151.30;65.75;;;;;;;6.43;73.75;95594.56;5044513;28;20049;-78
2022/11/15 09:59:51;;;;;;;164.23;66.50;;;;;;;6.82;74.10;95627.13;5054989;28;20048;-77
2022/11/15 10:02:36;;;;;;;149.93;65.70;;;;;;;6.70;74.14;95623.75;5038592;28;20055;-79
2022/11/15 10:05:03;;;;;;;144.82;63.17;;;;;;;6.82;73.52;95620.00;5054856;28;20117;-80
2022/11/15 10:07:46;;;;;;;163.70;66.45;;;;;;;6.42;74.02;95537.63;5060256;28;20112;-79
2022/11/15 10:10:32;;;;;;;153.82;65.30;;;;;;;7.03;73.66;95613.22;5037452;28;20127;-78
2022/11/15 10:12:58;;;;;;;159.45;66.05;;;;;;;6.52;73.72;95522.81;5036709;28;20043;-78
2022/11/15 10:15:24;;;;;;;154.88;65.68;;;;;;;6.34;73.61;95496.69;5055548;28;20041;-79
2022/11/15 10:18:17;;;;;;;153.80;66.57;;;;;;;7.18;73.68;95599.44;5061276;28;20987;-80
2022/11/15 10:20:54;;;;;;;151.60;64.78;;;;;;;6.80;72.82;95492.09;5033698;28;20082;-79
2022/11/15 10:23:22;;;;;;;156.60;66.18;;;;;;;7.02;72.35;95511.41;5051007;28;20048;-83
2022/11/15 10:25:52;;;;;;;155.35;66.10;;;;;;;7.16;71.90;95506.59;5048898;28;20854;-80
2022/11/15 10:28:21;;;;;;;155.27;68.93;;;;;;;8.12;70.59;95594.88;5043015;28;20056;-77
2022/11/15 10:34:13;;;;;;;163.23;68.75;;;;;;;8.61;68.11;95585.09;5040642;28;20039;-82
2022/11/15 10:37:04;;;;;;;150.32;67.75;;;;;;;7.46;67.09;95376.88;5031515;28;20142;-78
2022/11/15 10:39:29;;;;;;;165.15;75.00;;;;;;;8.09;67.28;95494.97;5053184;28;20055;-77
2022/11/15 10:41:55;;;;;;;166.95;73.88;;;;;;;8.57;67.25;95564.69;5040211;28;20041;-78
2022/11/15 10:44:31;;;;;;;179.13;79.32;;;;;;;7.72;67.63;95432.31;5034938;28;20067;-79
2022/11/15 10:46:59;;;;;;;156.80;71.90;;;;;;;8.82;67.31;95557.78;5067330;28;20043;-79
2022/11/15 10:49:29;;;;;;;161.50;75.05;;;;;;;8.93;66.88;95524.25;5069966;28;20048;-80
2022/11/15 10:52:01;;;;;;;170.00;76.50;;;;;;;9.32;65.72;95551.22;5067230;28;20150;-79
2022/11/15 10:54:35;;;;;;;157.48;75.03;;;;;;;7.66;65.01;95314.53;5030776;28;20564;-79
2022/11/15 10:57:07;;;;;;;164.60;76.35;;;;;;;8.90;65.30;95499.13;5062698;28;20800;-81
2022/11/15 10:59:37;;;;;;;158.05;71.43;;;;;;;9.02;65.38;95495.47;5062422;28;20123;-85
2022/11/15 11:02:23;;;;;;;163.95;73.65;;;;;;;9.46;64.65;95530.41;5051038;28;20095;-80
2022/11/15 11:04:51;;;;;;;160.18;72.82;;;;;;;9.11;64.25;95425.16;5050160;28;20051;-80
2022/11/15 11:07:23;;;;;;;140.32;68.20;;;;;;;9.26;65.02;95444.53;5076894;28;20674;-80
2022/11/15 11:10:16;;;;;;;127.88;64.40;;;;;;;9.44;63.79;95455.75;5067336;28;20040;-79
2022/11/15 11:12:41;;;;;;;121.70;61.38;;;;;;;9.29;63.31;95414.13;5045908;28;20587;-80
2022/11/15 11:15:14;;;;;;;123.03;60.22;;;;;;;9.69;63.24;95434.63;5039404;28;20032;-82
2022/11/15 11:18:33;;;;;;;126.28;60.03;;;;;;;10.39;62.32;95510.03;5034216;28;20549;-80
2022/11/15 11:21:14;;;;;;;124.45;59.65;;;;;;;10.35;61.61;95466.56;5034394;28;20043;-82
2022/11/15 11:23:54;;;;;;;119.10;57.30;;;;;;;10.11;60.77;95410.59;5045620;28;20840;-79
2022/11/15 11:26:44;;;;;;;127.05;58.40;;;;;;;10.85;61.22;95494.94;5050227;28;20076;-83
2022/11/15 11:29:38;;;;;;;118.03;57.67;;;;;;;10.93;60.54;95486.44;5028494;28;20077;-78
2022/11/15 11:32:52;;;;;;;115.25;57.80;;;;;;;11.08;59.94;95474.97;5062408;28;20036;-78
2022/11/15 11:35:27;;;;;;;116.30;58.05;;;;;;;11.06;60.38;95477.13;4995699;28;20038;-77
2022/11/15 11:37:59;;;;;;;120.72;59.67;;;;;;;11.18;59.50;95467.00;5060204;28;20047;-78
2022/11/15 11:40:34;;;;;;;123.28;57.70;;;;;;;10.59;59.66;95384.63;5037176;28;20040;-77
2022/11/15 11:43:13;;;;;;;124.40;58.15;;;;;;;10.88;59.38;95408.69;5054602;28;20096;-77
2022/11/15 11:46:00;;;;;;;109.97;56.05;;;;;;;11.10;59.27;95443.66;5048319;28;20078;-77
2022/11/15 11:48:40;;;;;;;111.88;54.28;;;;;;;11.12;59.21;95441.53;5064543;28;20075;-77
2022/11/15 11:51:36;;;;;;;110.63;53.50;;;;;;;10.93;59.52;95413.97;5061848;28;20072;-79